createdAt,value
2019-05-30T00:00:17.683Z,10.85
2019-05-30T00:02:43.504Z,10.23
2019-05-30T00:05:13.522Z,9.40
2019-05-30T00:07:42.878Z,9.53
2019-05-30T00:10:12.331Z,7.83
2019-05-30T00:12:41.686Z,7.80
2019-05-30T00:15:11.028Z,7.55
2019-05-30T00:17:40.392Z,7.37
2019-05-30T00:20:09.871Z,6.70
2019-05-30T00:22:39.216Z,6.97
2019-05-30T00:25:09.883Z,6.83
2019-05-30T00:27:39.314Z,6.60
2019-05-30T00:30:23.461Z,6.72
2019-05-30T00:32:40.156Z,6.30
2019-05-30T00:35:09.695Z,6.62
2019-05-30T00:37:39.062Z,6.87
2019-05-30T00:40:08.694Z,6.28
2019-05-30T00:42:38.120Z,7.37
2019-05-30T00:45:20.005Z,6.90
2019-05-30T00:47:39.058Z,7.67
2019-05-30T00:50:08.711Z,8.03
2019-05-30T00:52:38.072Z,7.97
2019-05-30T00:55:07.596Z,7.65
2019-05-30T00:57:37.015Z,7.83
2019-05-30T01:00:08.007Z,8.75
2019-05-30T01:02:37.475Z,7.65
2019-05-30T01:05:08.511Z,8.10
2019-05-30T01:07:37.939Z,8.18
2019-05-30T01:10:08.118Z,8.73
2019-05-30T01:12:37.846Z,8.10
2019-05-30T01:15:08.159Z,8.40
2019-05-30T01:17:37.586Z,8.18
2019-05-30T01:20:07.686Z,8.83
2019-05-30T01:22:37.194Z,15.03
2019-05-30T01:25:08.408Z,13.50
2019-05-30T01:27:37.844Z,10.25
2019-05-30T01:30:09.262Z,9.00
2019-05-30T01:32:38.715Z,8.78
2019-05-30T01:35:08.582Z,8.58
2019-05-30T01:37:37.947Z,8.95
2019-05-30T01:40:09.035Z,8.25
2019-05-30T01:42:38.550Z,7.65
2019-05-30T01:45:09.141Z,8.10
2019-05-30T01:47:38.559Z,8.73
2019-05-30T01:50:10.245Z,8.38
2019-05-30T01:52:39.612Z,9.33
2019-05-30T01:55:10.166Z,9.48
2019-05-30T01:57:39.621Z,9.58
2019-05-30T02:00:20.029Z,10.95
2019-05-30T02:02:42.759Z,11.12
2019-05-30T02:05:14.259Z,10.25
2019-05-30T02:07:43.652Z,11.45
2019-05-30T02:10:13.301Z,9.95
2019-05-30T02:12:42.910Z,10.95
2019-05-30T02:15:12.833Z,9.48
2019-05-30T02:17:42.284Z,8.85
2019-05-30T02:20:12.192Z,7.97
2019-05-30T02:22:41.602Z,8.08
2019-05-30T02:25:11.280Z,6.70
2019-05-30T02:27:40.643Z,6.80
2019-05-30T02:30:12.697Z,6.50
2019-05-30T02:32:41.789Z,7.60
2019-05-30T02:35:12.872Z,8.43
2019-05-30T02:37:42.420Z,10.15
2019-05-30T02:40:15.274Z,10.23
2019-05-30T02:42:43.535Z,12.85
2019-05-30T02:45:13.152Z,13.18
2019-05-30T02:47:42.556Z,15.75
2019-05-30T02:50:14.078Z,14.03
2019-05-30T02:52:43.792Z,15.45
2019-05-30T02:55:13.934Z,12.33
2019-05-30T02:57:43.403Z,11.85
2019-05-30T03:00:17.122Z,9.93
2019-05-30T03:02:44.671Z,7.83
2019-05-30T03:05:15.165Z,7.37
2019-05-30T03:07:44.670Z,6.12
2019-05-30T03:10:15.413Z,5.53
2019-05-30T03:12:45.100Z,4.83
2019-05-30T03:15:15.792Z,4.87
2019-05-30T03:17:45.543Z,5.08
2019-05-30T03:20:22.814Z,4.62
2019-05-30T03:22:46.493Z,5.05
2019-05-30T03:25:16.449Z,5.15
2019-05-30T03:27:45.960Z,4.97
2019-05-30T03:30:25.875Z,5.83
2019-05-30T03:33:15.831Z,4.67
2019-05-30T03:35:27.558Z,5.08
2019-05-30T03:37:49.116Z,4.92
2019-05-30T03:40:20.738Z,5.47
2019-05-30T03:42:51.300Z,5.22
2019-05-30T03:45:25.413Z,5.78
2019-05-30T03:47:59.261Z,8.40
2019-05-30T03:50:30.803Z,5.40
2019-05-30T03:53:00.307Z,4.27
2019-05-30T03:55:32.368Z,4.30
2019-05-30T03:58:23.989Z,4.60
2019-05-30T04:01:12.639Z,4.60
2019-05-30T04:03:56.743Z,3.85
2019-05-30T04:06:31.989Z,3.85
2019-05-30T04:09:07.263Z,4.40
2019-05-30T04:11:48.761Z,4.05
2019-05-30T04:14:21.202Z,4.20
2019-05-30T04:16:50.625Z,4.83
2019-05-30T04:19:20.279Z,3.80
2019-05-30T04:21:49.809Z,4.00
2019-05-30T04:24:19.742Z,4.08
2019-05-30T04:26:51.445Z,3.60
2019-05-30T04:29:20.515Z,3.90
2019-05-30T04:31:49.895Z,3.77
2019-05-30T04:34:26.903Z,3.60
2019-05-30T04:36:58.933Z,3.70
2019-05-30T04:39:28.333Z,3.92
2019-05-30T04:41:58.520Z,3.52
2019-05-30T04:44:28.184Z,3.55
2019-05-30T04:46:57.632Z,3.60
2019-05-30T04:49:27.099Z,3.17
2019-05-30T04:51:56.613Z,3.10
2019-05-30T04:54:26.115Z,2.80
2019-05-30T04:56:55.308Z,2.93
2019-05-30T04:59:24.951Z,2.80
2019-05-30T05:01:57.262Z,2.70
2019-05-30T05:04:26.718Z,2.98
2019-05-30T05:06:56.088Z,3.10
2019-05-30T05:09:25.303Z,2.87
2019-05-30T05:11:54.709Z,2.85
2019-05-30T05:14:24.355Z,3.33
2019-05-30T05:16:53.766Z,2.63
2019-05-30T05:19:25.642Z,3.00
2019-05-30T05:21:54.028Z,2.73
2019-05-30T05:24:23.670Z,2.87
2019-05-30T05:26:52.841Z,2.20
2019-05-30T05:29:22.044Z,2.37
2019-05-30T05:31:51.218Z,2.70
2019-05-30T05:34:20.692Z,2.70
2019-05-30T05:36:49.916Z,2.20
2019-05-30T05:39:20.075Z,2.10
2019-05-30T05:41:49.156Z,2.20
2019-05-30T05:44:18.380Z,2.70
2019-05-30T05:46:48.098Z,2.95
2019-05-30T05:49:20.587Z,3.07
2019-05-30T05:51:50.122Z,2.80
2019-05-30T05:54:19.281Z,2.47
2019-05-30T05:56:48.709Z,3.30
2019-05-30T05:59:19.084Z,2.40
2019-05-30T06:01:50.899Z,2.50
2019-05-30T06:04:21.125Z,2.40
2019-05-30T06:06:50.418Z,2.40
2019-05-30T06:09:22.563Z,2.40
2019-05-30T06:11:50.681Z,2.10
2019-05-30T06:14:19.999Z,2.20
2019-05-30T06:16:49.150Z,2.10
2019-05-30T06:19:21.276Z,2.83
2019-05-30T06:21:54.588Z,2.83
2019-05-30T06:24:23.866Z,2.23
2019-05-30T06:27:02.089Z,2.07
2019-05-30T06:29:31.373Z,2.30
2019-05-30T06:32:00.604Z,2.03
2019-05-30T06:34:38.888Z,2.60
2019-05-30T06:37:12.224Z,1.93
2019-05-30T06:39:48.760Z,2.93
2019-05-30T06:42:28.243Z,2.00
2019-05-30T06:44:57.422Z,2.23
2019-05-30T06:47:26.731Z,2.33
2019-05-30T06:49:56.047Z,2.50
2019-05-30T06:52:25.382Z,2.30
2019-05-30T06:54:58.568Z,2.17
2019-05-30T06:57:59.909Z,2.90
2019-05-30T07:00:02.241Z,2.37
2019-05-30T07:02:54.745Z,2.70
2019-05-30T07:05:39.061Z,2.87
2019-05-30T07:08:40.205Z,2.83
2019-05-30T07:11:13.638Z,3.17
2019-05-30T07:13:42.779Z,3.10
2019-05-30T07:16:25.332Z,3.17
2019-05-30T07:18:54.935Z,3.47
2019-05-30T07:21:27.655Z,3.03
2019-05-30T07:24:00.443Z,3.07
2019-05-30T07:26:35.824Z,3.13
2019-05-30T07:29:05.231Z,3.00
2019-05-30T07:31:41.669Z,3.50
2019-05-30T07:40:20.834Z,3.50
2019-05-30T07:42:54.060Z,3.40
2019-05-30T07:48:30.182Z,3.13
2019-05-30T07:51:01.731Z,3.40
2019-05-30T07:53:32.805Z,2.97
2019-05-30T07:56:07.476Z,3.30
2019-05-30T07:58:37.405Z,3.43
2019-05-30T08:01:10.529Z,3.60
2019-05-30T08:03:42.385Z,3.57
2019-05-30T08:06:22.132Z,3.43
2019-05-30T08:08:52.354Z,3.50
2019-05-30T08:14:26.983Z,3.40
2019-05-30T08:16:59.423Z,3.47
2019-05-30T08:19:32.751Z,3.60
2019-05-30T08:22:05.327Z,3.60
2019-05-30T08:24:41.195Z,4.10
2019-05-30T08:27:17.227Z,4.00
2019-05-30T08:29:46.565Z,3.90
2019-05-30T08:32:15.788Z,3.73
2019-05-30T08:34:45.175Z,4.57
2019-05-30T08:37:16.003Z,4.23
2019-05-30T08:39:45.391Z,4.20
2019-05-30T08:42:14.703Z,4.13
2019-05-30T08:44:46.133Z,4.50
2019-05-30T08:47:20.059Z,4.40
2019-05-30T08:49:50.672Z,4.10
2019-05-30T08:52:30.268Z,4.10
2019-05-30T08:55:01.908Z,4.50
2019-05-30T08:57:30.862Z,4.30
2019-05-30T09:00:00.294Z,4.33
2019-05-30T09:02:38.802Z,4.20
2019-05-30T09:05:07.082Z,4.40
2019-05-30T09:07:40.444Z,4.40
2019-05-30T09:10:22.293Z,4.40
2019-05-30T09:13:09.139Z,4.20
2019-05-30T09:15:41.064Z,4.33
2019-05-30T09:18:13.598Z,4.80
2019-05-30T09:23:38.639Z,4.60
2019-05-30T09:26:08.179Z,4.90
2019-05-30T09:28:40.669Z,4.50
2019-05-30T09:31:12.934Z,4.30
2019-05-30T09:33:48.570Z,4.20
2019-05-30T09:36:20.789Z,4.33
2019-05-30T09:38:50.292Z,4.70
2019-05-30T09:41:19.503Z,4.80
2019-05-30T09:44:14.701Z,4.47
2019-05-30T09:46:37.629Z,4.57
2019-05-30T09:49:07.132Z,4.93
2019-05-30T09:51:39.180Z,4.57
2019-05-30T09:54:15.660Z,4.67
2019-05-30T09:56:48.552Z,5.47
2019-05-30T09:59:17.627Z,5.17
2019-05-30T10:01:50.173Z,5.07
2019-05-30T10:04:19.526Z,5.87
2019-05-30T10:06:50.515Z,7.80
2019-05-30T10:09:25.948Z,4.87
2019-05-30T10:11:58.613Z,4.53
2019-05-30T10:14:40.895Z,4.33
2019-05-30T10:17:07.381Z,4.27
2019-05-30T10:19:38.147Z,4.10
2019-05-30T10:22:24.548Z,4.37
2019-05-30T10:27:57.799Z,4.20
2019-05-30T10:30:27.942Z,4.00
2019-05-30T10:32:57.120Z,4.20
2019-05-30T10:35:57.631Z,3.70
2019-05-30T10:38:06.199Z,4.27
2019-05-30T10:40:35.548Z,4.03
2019-05-30T10:46:13.712Z,3.63
2019-05-30T10:48:35.990Z,3.87
2019-05-30T10:51:08.497Z,5.10
2019-05-30T10:53:42.539Z,3.83
2019-05-30T10:56:19.603Z,8.50
2019-05-30T10:58:52.856Z,7.40
2019-05-30T11:01:31.586Z,3.53
2019-05-30T11:04:08.189Z,4.20
2019-05-30T11:07:11.623Z,4.07
2019-05-30T11:09:53.289Z,9.70
2019-05-30T11:12:31.663Z,4.37
2019-05-30T11:18:02.371Z,4.57
2019-05-30T11:20:38.457Z,4.00
2019-05-30T11:23:13.710Z,4.60
2019-05-30T11:25:50.491Z,3.77
2019-05-30T11:28:21.975Z,4.00
2019-05-30T11:30:58.948Z,3.30
2019-05-30T11:33:40.833Z,4.20
2019-05-30T11:36:13.550Z,3.63
2019-05-30T11:38:47.030Z,3.60
2019-05-30T11:41:16.440Z,3.43
2019-05-30T11:43:55.556Z,3.70
2019-05-30T11:46:29.188Z,3.80
2019-05-30T11:49:04.611Z,3.40
2019-05-30T11:51:37.872Z,3.60
2019-05-30T11:54:24.958Z,3.30
2019-05-30T11:57:08.199Z,3.40
2019-05-30T11:59:39.915Z,3.73
2019-05-30T12:02:09.246Z,3.43
2019-05-30T12:04:58.613Z,3.67
2019-05-30T12:07:35.101Z,6.77
2019-05-30T12:09:50.761Z,5.57
2019-05-30T12:12:22.996Z,4.10
2019-05-30T12:14:59.464Z,3.50
2019-05-30T12:17:40.475Z,3.63
2019-05-30T12:20:13.015Z,3.90
2019-05-30T12:25:37.116Z,6.43
2019-05-30T12:28:15.272Z,4.03
2019-05-30T12:30:56.891Z,3.63
2019-05-30T12:33:18.805Z,6.10
2019-05-30T12:38:47.148Z,3.50
2019-05-30T12:41:18.892Z,3.90
2019-05-30T12:43:47.618Z,4.17
2019-05-30T12:46:29.936Z,3.43
2019-05-30T12:49:06.557Z,3.83
2019-05-30T12:51:56.469Z,3.30
2019-05-30T12:54:25.462Z,3.80
2019-05-30T12:59:44.216Z,3.43
2019-05-30T13:02:13.585Z,3.70
2019-05-30T13:04:50.640Z,3.63
2019-05-30T13:07:21.429Z,3.87
2019-05-30T13:09:59.492Z,4.37
2019-05-30T13:12:30.766Z,5.03
2019-05-30T13:15:03.817Z,5.00
2019-05-30T13:17:44.198Z,5.07
2019-05-30T13:20:27.069Z,5.17
2019-05-30T13:22:56.349Z,4.93
2019-05-30T13:25:25.957Z,4.30
2019-05-30T13:28:08.074Z,8.70
2019-05-30T13:33:43.324Z,4.43
2019-05-30T13:36:19.121Z,4.30
2019-05-30T13:38:54.051Z,4.43
2019-05-30T13:41:30.674Z,4.60
2019-05-30T13:47:02.865Z,4.70
2019-05-30T13:49:43.722Z,4.70
2019-05-30T13:55:14.595Z,3.87
2019-05-30T14:03:47.858Z,4.13
2019-05-30T14:09:15.045Z,4.33
2019-05-30T14:12:06.734Z,3.63
2019-05-30T14:14:26.030Z,3.57
2019-05-30T14:17:02.820Z,4.40
2019-05-30T14:19:57.507Z,5.57
2019-05-30T14:25:07.623Z,4.73
2019-05-30T14:27:39.004Z,5.50
2019-05-30T14:30:12.925Z,5.30
2019-05-30T14:33:06.019Z,5.20
2019-05-30T14:35:26.778Z,5.10
2019-05-30T14:38:05.065Z,5.13
2019-05-30T14:40:40.642Z,4.57
2019-05-30T14:43:13.580Z,5.27
2019-05-30T14:45:43.108Z,6.27
2019-05-30T14:48:12.605Z,4.67
2019-05-30T14:50:46.304Z,4.93
2019-05-30T14:53:20.136Z,4.87
2019-05-30T14:55:53.028Z,5.77
2019-05-30T14:58:42.280Z,5.20
2019-05-30T15:01:28.178Z,4.80
2019-05-30T15:04:13.445Z,5.00
2019-05-30T15:06:41.605Z,5.37
2019-05-30T15:09:21.157Z,5.57
2019-05-30T15:11:42.088Z,5.27
2019-05-30T15:14:11.412Z,4.97
2019-05-30T15:16:44.964Z,5.20
2019-05-30T15:19:35.463Z,5.10
2019-05-30T15:21:59.815Z,4.23
2019-05-30T15:24:30.683Z,5.40
2019-05-30T15:27:01.620Z,5.70
2019-05-30T15:29:39.714Z,4.70
2019-05-30T15:32:14.541Z,4.47
2019-05-30T15:34:52.565Z,4.73
2019-05-30T15:37:21.962Z,5.03
2019-05-30T15:39:55.630Z,5.43
2019-05-30T15:42:26.459Z,5.47
2019-05-30T15:44:57.503Z,5.33
2019-05-30T15:47:28.751Z,4.30
2019-05-30T15:52:59.526Z,3.60
2019-05-30T15:58:31.307Z,3.90
2019-05-30T16:01:00.875Z,4.20
2019-05-30T16:03:30.045Z,3.70
2019-05-30T16:05:59.278Z,3.83
2019-05-30T16:08:31.309Z,3.93
2019-05-30T16:11:00.447Z,3.93
2019-05-30T16:13:29.870Z,5.00
2019-05-30T16:15:59.484Z,5.83
2019-05-30T16:18:30.652Z,5.57
2019-05-30T16:20:59.623Z,9.80
2019-05-30T16:23:28.919Z,7.80
2019-05-30T16:25:58.221Z,10.07
2019-05-30T16:28:27.568Z,11.40
2019-05-30T16:30:58.796Z,14.73
2019-05-30T16:33:32.777Z,11.03
2019-05-30T16:36:01.988Z,8.90
2019-05-30T16:38:36.078Z,9.00
2019-05-30T16:41:04.899Z,5.97
2019-05-30T16:43:36.669Z,6.03
2019-05-30T16:46:06.341Z,6.17
2019-05-30T16:48:35.587Z,6.57
2019-05-30T16:51:04.797Z,5.73
2019-05-30T16:53:37.104Z,5.33
2019-05-30T16:56:06.456Z,6.23
2019-05-30T16:58:54.612Z,7.07
2019-05-30T17:01:27.222Z,9.67
2019-05-30T17:04:03.179Z,12.00
2019-05-30T17:06:37.127Z,10.30
2019-05-30T17:09:06.931Z,9.57
2019-05-30T17:11:41.552Z,8.43
2019-05-30T17:14:13.816Z,18.20
2019-05-30T17:16:45.425Z,15.67
2019-05-30T17:19:22.301Z,9.73
2019-05-30T17:21:56.043Z,12.03
2019-05-30T17:27:20.139Z,10.97
2019-05-30T17:29:52.303Z,11.00
2019-05-30T17:35:16.266Z,9.17
2019-05-30T17:37:49.074Z,7.53
2019-05-30T17:40:18.644Z,9.40
2019-05-30T17:42:50.130Z,7.50
2019-05-30T17:45:21.345Z,8.00
2019-05-30T17:48:13.418Z,6.25
2019-05-30T17:50:30.684Z,7.30
2019-05-30T17:53:00.554Z,6.70
2019-05-30T17:55:30.184Z,6.92
2019-05-30T17:57:59.660Z,9.10
2019-05-30T18:00:30.624Z,7.55
2019-05-30T18:02:59.947Z,8.57
2019-05-30T18:05:30.851Z,9.98
2019-05-30T18:08:00.646Z,10.88
2019-05-30T18:10:31.189Z,9.20
2019-05-30T18:13:01.187Z,7.53
2019-05-30T18:15:32.416Z,6.90
2019-05-30T18:18:04.100Z,9.63
2019-05-30T18:20:47.743Z,10.15
2019-05-30T18:23:06.283Z,8.70
2019-05-30T18:25:35.981Z,8.40
2019-05-30T18:28:05.522Z,8.40
2019-05-30T18:30:40.187Z,8.75
2019-05-30T18:33:09.819Z,10.35
2019-05-30T18:35:39.476Z,11.08
2019-05-30T18:38:08.985Z,8.43
2019-05-30T18:40:39.008Z,8.55
2019-05-30T18:43:08.680Z,8.10
2019-05-30T18:45:40.580Z,7.08
2019-05-30T18:48:11.632Z,7.70
2019-05-30T18:50:41.368Z,7.62
2019-05-30T18:53:11.313Z,7.55
2019-05-30T18:55:40.778Z,7.10
2019-05-30T18:58:10.192Z,6.90
2019-05-30T19:00:39.745Z,8.20
2019-05-30T19:03:09.406Z,6.90
2019-05-30T19:05:38.847Z,6.70
2019-05-30T19:08:08.329Z,6.30
2019-05-30T19:10:37.924Z,6.00
2019-05-30T19:13:07.576Z,6.75
2019-05-30T19:15:37.638Z,5.53
2019-05-30T19:18:09.212Z,5.58
2019-05-30T19:20:39.128Z,6.35
2019-05-30T19:23:08.688Z,6.53
2019-05-30T19:25:38.181Z,6.25
2019-05-30T19:28:07.709Z,6.33
2019-05-30T19:30:40.454Z,5.50
2019-05-30T19:33:08.596Z,5.70
2019-05-30T19:35:38.309Z,6.00
2019-05-30T19:38:07.862Z,5.60
2019-05-30T19:40:38.022Z,6.58
2019-05-30T19:43:07.700Z,6.75
2019-05-30T19:45:38.350Z,6.47
2019-05-30T19:48:07.904Z,6.92
2019-05-30T19:50:37.365Z,7.28
2019-05-30T19:53:06.813Z,8.95
2019-05-30T19:55:37.551Z,9.93
2019-05-30T19:58:07.094Z,10.48
2019-05-30T20:00:54.449Z,9.50
2019-05-30T20:03:07.925Z,9.78
2019-05-30T20:05:38.821Z,9.43
2019-05-30T20:08:08.426Z,8.98
2019-05-30T20:10:39.129Z,9.58
2019-05-30T20:13:08.662Z,9.73
2019-05-30T20:15:38.032Z,10.08
2019-05-30T20:18:07.587Z,10.03
2019-05-30T20:20:50.383Z,10.18
2019-05-30T20:23:08.360Z,10.78
2019-05-30T20:25:41.867Z,10.65
2019-05-30T20:28:09.050Z,10.18
2019-05-30T20:30:39.141Z,10.10
2019-05-30T20:33:08.726Z,8.98
2019-05-30T20:35:40.066Z,9.70
2019-05-30T20:38:09.653Z,10.78
2019-05-30T20:40:39.180Z,10.45
2019-05-30T20:43:08.554Z,11.53
2019-05-30T20:45:41.985Z,10.90
2019-05-30T20:48:09.142Z,10.35
2019-05-30T20:50:39.109Z,10.53
2019-05-30T20:53:08.507Z,10.85
2019-05-30T20:55:38.375Z,10.48
2019-05-30T20:58:07.924Z,10.20
2019-05-30T21:00:40.182Z,12.82
2019-05-30T21:03:09.773Z,9.83
2019-05-30T21:05:41.964Z,9.60
2019-05-30T21:08:12.671Z,7.90
2019-05-30T21:10:43.290Z,8.98
2019-05-30T21:13:12.615Z,8.40
2019-05-30T21:15:43.849Z,9.10
2019-05-30T21:18:13.207Z,10.30
2019-05-30T21:20:42.592Z,11.38
2019-05-30T21:23:11.999Z,9.58
2019-05-30T21:25:41.486Z,9.95
2019-05-30T21:28:10.896Z,8.38
2019-05-30T21:30:41.314Z,9.80
2019-05-30T21:33:10.814Z,10.88
2019-05-30T21:35:41.687Z,10.32
2019-05-30T21:38:11.229Z,8.53
2019-05-30T21:40:40.679Z,8.95
2019-05-30T21:43:10.107Z,8.20
2019-05-30T21:45:40.406Z,7.03
2019-05-30T21:48:09.848Z,6.67
2019-05-30T21:50:40.939Z,6.83
2019-05-30T21:53:10.449Z,6.72
2019-05-30T21:55:39.884Z,6.90
2019-05-30T21:58:09.305Z,7.65
2019-05-30T22:00:50.985Z,7.25
2019-05-30T22:03:20.369Z,7.03
2019-05-30T22:05:51.747Z,6.67
2019-05-30T22:08:20.891Z,6.50
2019-05-30T22:10:51.628Z,7.83
2019-05-30T22:13:21.077Z,7.92
2019-05-30T22:15:50.538Z,8.85
2019-05-30T22:18:19.968Z,8.50
2019-05-30T22:20:49.936Z,8.05
2019-05-30T22:23:19.480Z,7.67
2019-05-30T22:25:48.853Z,8.48
2019-05-30T22:28:18.302Z,6.70
2019-05-30T22:30:48.524Z,7.58
2019-05-30T22:33:17.995Z,7.12
2019-05-30T22:35:47.350Z,5.97
2019-05-30T22:38:16.799Z,6.50
2019-05-30T22:40:46.128Z,6.15
2019-05-30T22:43:24.884Z,6.22
2019-05-30T22:45:46.663Z,6.05
2019-05-30T22:48:17.516Z,6.72
2019-05-30T22:50:46.912Z,7.05
2019-05-30T22:53:16.389Z,7.67
2019-05-30T22:55:46.852Z,8.90
2019-05-30T22:58:16.444Z,8.45
2019-05-30T23:00:46.086Z,8.20
2019-05-30T23:03:15.574Z,7.60
2019-05-30T23:05:45.266Z,8.05
2019-05-30T23:08:14.863Z,7.10
2019-05-30T23:10:45.602Z,7.70
2019-05-30T23:13:15.126Z,8.00
2019-05-30T23:15:44.502Z,8.10
2019-05-30T23:18:13.945Z,7.85
2019-05-30T23:20:43.364Z,7.45
2019-05-30T23:23:12.775Z,8.90
2019-05-30T23:25:42.226Z,8.00
2019-05-30T23:28:11.676Z,8.60
2019-05-30T23:30:41.123Z,7.83
2019-05-30T23:33:10.550Z,8.15
2019-05-30T23:35:39.995Z,8.05
2019-05-30T23:38:09.432Z,8.53
2019-05-30T23:40:38.874Z,9.18
2019-05-30T23:43:08.322Z,10.75
2019-05-30T23:45:37.815Z,9.90
2019-05-30T23:48:07.225Z,9.53
2019-05-30T23:50:36.584Z,9.43
2019-05-30T23:53:06.035Z,8.83
2019-05-30T23:55:35.473Z,8.78
2019-05-30T23:58:05.001Z,8.30
